createdAt,value
2023-04-21T00:01:56.453Z,7.00
2023-04-21T00:04:24.125Z,7.00
2023-04-21T00:06:53.308Z,6.90
2023-04-21T00:09:20.618Z,7.00
2023-04-21T00:11:48.004Z,6.90
2023-04-21T00:14:14.745Z,6.90
2023-04-21T00:16:42.069Z,6.90
2023-04-21T00:19:08.824Z,6.90
2023-04-21T00:21:36.614Z,6.90
2023-04-21T00:24:03.811Z,6.90
2023-04-21T00:26:31.211Z,6.90
2023-04-21T00:28:58.780Z,6.90
2023-04-21T00:31:26.306Z,6.90
2023-04-21T00:33:53.803Z,7.00
2023-04-21T00:36:24.977Z,6.90
2023-04-21T00:38:52.731Z,6.90
2023-04-21T00:41:20.016Z,7.00
2023-04-21T00:44:07.079Z,7.00
2023-04-21T00:46:35.445Z,7.00
2023-04-21T00:49:04.946Z,7.00
2023-04-21T00:51:34.813Z,7.00
2023-04-21T00:54:04.719Z,7.00
2023-04-21T00:56:33.834Z,6.90
2023-04-21T00:59:04.505Z,7.00
2023-04-21T01:01:34.525Z,6.90
2023-04-21T01:04:02.423Z,7.00
2023-04-21T01:06:36.777Z,7.00
2023-04-21T01:09:06.964Z,6.90
2023-04-21T01:11:36.813Z,6.90
2023-04-21T01:14:03.497Z,6.90
2023-04-21T01:16:32.644Z,6.90
2023-04-21T01:19:01.016Z,6.90
2023-04-21T01:21:29.272Z,6.90
2023-04-21T01:23:55.982Z,6.90
2023-04-21T01:26:23.800Z,6.90
2023-04-21T01:28:50.542Z,6.90
2023-04-21T01:31:18.599Z,6.90
2023-04-21T01:33:45.574Z,6.90
2023-04-21T01:36:13.024Z,6.90
2023-04-21T01:38:40.982Z,6.90
2023-04-21T01:41:09.009Z,6.90
2023-04-21T01:43:37.034Z,6.90
2023-04-21T01:46:05.816Z,6.90
2023-04-21T01:48:32.490Z,6.90
2023-04-21T01:50:59.419Z,6.90
2023-04-21T01:53:27.191Z,6.90
2023-04-21T01:55:53.843Z,7.00
2023-04-21T01:58:21.851Z,6.90
2023-04-21T02:00:48.544Z,6.90
2023-04-21T02:03:16.155Z,7.00
2023-04-21T02:05:46.062Z,6.90
2023-04-21T02:08:13.161Z,7.00
2023-04-21T02:10:41.124Z,7.00
2023-04-21T02:13:11.938Z,7.00
2023-04-21T02:15:38.679Z,7.00
2023-04-21T02:18:08.493Z,7.00
2023-04-21T02:20:35.420Z,7.00
2023-04-21T02:23:02.758Z,7.00
2023-04-21T02:25:29.920Z,7.10
2023-04-21T02:27:57.142Z,7.00
2023-04-21T02:30:26.925Z,7.10
2023-04-21T02:32:54.121Z,7.10
2023-04-21T02:35:20.993Z,7.00
2023-04-21T02:37:47.903Z,7.00
2023-04-21T02:40:15.688Z,7.00
2023-04-21T02:42:43.022Z,7.00
2023-04-21T02:45:10.561Z,7.10
2023-04-21T02:47:37.805Z,7.10
2023-04-21T02:50:04.785Z,7.10
2023-04-21T02:52:37.342Z,7.00
2023-04-21T02:55:04.346Z,7.00
2023-04-21T02:57:31.574Z,6.90
2023-04-21T02:59:59.930Z,6.90
2023-04-21T03:02:27.447Z,6.90
2023-04-21T03:04:54.088Z,6.90
2023-04-21T03:07:21.436Z,6.90
2023-04-21T03:09:48.102Z,6.80
2023-04-21T03:12:15.378Z,6.80
2023-04-21T03:14:42.226Z,6.70
2023-04-21T03:17:09.562Z,6.70
2023-04-21T03:19:36.277Z,6.60
2023-04-21T03:22:04.292Z,6.60
2023-04-21T03:24:31.348Z,6.60
2023-04-21T03:26:58.774Z,6.60
2023-04-21T03:29:25.464Z,6.50
2023-04-21T03:31:52.728Z,6.40
2023-04-21T03:34:20.282Z,6.30
2023-04-21T03:36:47.783Z,6.30
2023-04-21T03:41:46.401Z,6.30
2023-04-21T03:44:13.000Z,6.20
2023-04-21T03:46:40.384Z,6.20
2023-04-21T03:49:07.021Z,6.20
2023-04-21T03:51:34.294Z,6.10
2023-04-21T03:54:00.906Z,6.10
2023-04-21T03:56:27.827Z,6.00
2023-04-21T03:58:55.114Z,6.00
2023-04-21T04:01:21.876Z,6.00
2023-04-21T04:03:49.434Z,6.00
2023-04-21T04:06:16.388Z,6.00
2023-04-21T04:08:43.627Z,6.00
2023-04-21T04:11:10.360Z,5.90
2023-04-21T04:13:37.599Z,5.90
2023-04-21T04:16:04.442Z,5.90
2023-04-21T04:18:31.733Z,5.90
2023-04-21T04:20:58.398Z,5.90
2023-04-21T04:23:26.316Z,6.00
2023-04-21T04:25:52.928Z,6.00
2023-04-21T04:28:20.152Z,6.00
2023-04-21T04:30:46.752Z,5.90
2023-04-21T04:33:14.026Z,5.80
2023-04-21T04:35:40.917Z,5.80
2023-04-21T04:38:08.147Z,5.80
2023-04-21T04:40:34.800Z,5.80
2023-04-21T04:43:02.858Z,5.80
2023-04-21T04:45:32.824Z,5.80
2023-04-21T04:48:00.472Z,5.80
2023-04-21T04:50:27.262Z,5.80
2023-04-21T04:52:54.549Z,5.90
2023-04-21T04:55:22.007Z,5.90
2023-04-21T04:57:49.834Z,6.00
2023-04-21T05:00:17.111Z,6.00
2023-04-21T05:02:44.546Z,6.10
2023-04-21T05:05:11.664Z,6.20
2023-04-21T05:07:39.111Z,6.20
2023-04-21T05:10:06.128Z,6.30
2023-04-21T05:12:33.204Z,6.40
2023-04-21T05:14:59.809Z,6.50
2023-04-21T05:17:27.479Z,6.60
2023-04-21T05:19:54.114Z,6.80
2023-04-21T05:22:21.006Z,6.90
2023-04-21T05:24:48.156Z,7.10
2023-04-21T05:27:15.236Z,7.30
2023-04-21T05:29:41.887Z,7.60
2023-04-21T05:32:09.127Z,7.80
2023-04-21T05:34:36.531Z,8.10
2023-04-21T05:37:03.219Z,8.20
2023-04-21T05:39:30.850Z,8.30
2023-04-21T05:41:58.215Z,8.20
2023-04-21T05:44:25.824Z,8.00
2023-04-21T05:46:52.495Z,7.80
2023-04-21T05:49:19.767Z,7.70
2023-04-21T05:51:46.637Z,7.70
2023-04-21T05:54:13.908Z,7.70
2023-04-21T05:56:40.491Z,7.70
2023-04-21T05:59:07.742Z,7.90
2023-04-21T06:01:34.426Z,8.50
2023-04-21T06:04:02.138Z,9.10
2023-04-21T06:06:29.013Z,10.40
2023-04-21T06:08:56.367Z,11.40
2023-04-21T06:11:23.767Z,11.60
2023-04-21T06:13:53.808Z,11.90
2023-04-21T06:16:20.748Z,12.00
2023-04-21T06:18:47.810Z,12.70
2023-04-21T06:21:15.107Z,13.20
2023-04-21T06:23:42.229Z,13.60
2023-04-21T06:26:09.667Z,13.90
2023-04-21T06:28:36.947Z,13.60
2023-04-21T06:31:07.833Z,13.70
2023-04-21T06:33:35.682Z,13.20
2023-04-21T06:36:03.025Z,12.90
2023-04-21T06:38:29.700Z,12.90
2023-04-21T06:40:57.077Z,12.70
2023-04-21T06:43:23.747Z,12.60
2023-04-21T06:45:50.895Z,12.90
2023-04-21T06:48:17.548Z,12.90
2023-04-21T06:50:46.549Z,12.70
2023-04-21T06:53:13.256Z,12.50
2023-04-21T06:55:40.684Z,13.10
2023-04-21T06:58:07.328Z,12.60
2023-04-21T07:00:34.666Z,12.50
2023-04-21T07:03:01.481Z,13.00
2023-04-21T07:05:29.297Z,13.30
2023-04-21T07:07:59.610Z,12.80
2023-04-21T07:10:27.623Z,13.10
2023-04-21T07:12:55.269Z,13.40
2023-04-21T07:15:22.777Z,14.20
2023-04-21T07:17:49.465Z,14.90
2023-04-21T07:20:18.881Z,14.50
2023-04-21T07:22:45.599Z,13.90
2023-04-21T07:25:13.204Z,14.00
2023-04-21T07:27:40.141Z,14.00
2023-04-21T07:30:08.159Z,13.60
2023-04-21T07:32:37.454Z,13.00
2023-04-21T07:35:06.573Z,13.30
2023-04-21T07:37:33.246Z,13.50
2023-04-21T07:40:00.630Z,13.30
2023-04-21T07:42:27.406Z,13.70
2023-04-21T07:44:56.244Z,13.60
2023-04-21T07:47:22.949Z,14.10
2023-04-21T07:49:50.318Z,13.90
2023-04-21T07:52:17.030Z,14.60
2023-04-21T07:54:44.286Z,15.20
2023-04-21T07:57:11.004Z,15.20
2023-04-21T07:59:38.081Z,15.40
2023-04-21T08:02:05.690Z,15.00
2023-04-21T08:04:32.571Z,15.00
2023-04-21T08:06:59.546Z,14.40
2023-04-21T08:09:27.381Z,14.10
2023-04-21T08:11:55.269Z,14.40
2023-04-21T08:14:22.681Z,14.80
2023-04-21T08:16:49.756Z,14.90
2023-04-21T08:19:16.921Z,14.60
2023-04-21T08:21:43.672Z,14.30
2023-04-21T08:24:11.105Z,13.90
2023-04-21T08:26:37.865Z,14.40
2023-04-21T08:29:07.585Z,14.50
2023-04-21T08:31:34.432Z,14.60
2023-04-21T08:34:03.042Z,14.00
2023-04-21T08:36:31.577Z,14.10
2023-04-21T08:38:58.744Z,13.60
2023-04-21T08:44:20.848Z,12.40
2023-04-21T08:46:53.882Z,12.00
2023-04-21T08:49:23.273Z,11.90
2023-04-21T08:51:50.179Z,11.50
2023-04-21T08:54:21.818Z,11.30
2023-04-21T08:56:49.741Z,11.20
2023-04-21T08:59:16.424Z,11.20
2023-04-21T09:02:21.031Z,11.20
2023-04-21T09:04:54.936Z,11.10
2023-04-21T09:07:41.343Z,11.20
2023-04-21T09:10:09.078Z,11.20
2023-04-21T09:12:38.525Z,11.30
2023-04-21T09:15:06.743Z,11.40
2023-04-21T09:17:33.656Z,11.50
2023-04-21T09:20:19.167Z,11.50
2023-04-21T09:22:47.849Z,11.80
2023-04-21T09:25:19.976Z,12.10
2023-04-21T09:27:47.986Z,12.50
2023-04-21T09:30:20.004Z,12.70
2023-04-21T09:32:46.944Z,12.90
2023-04-21T09:35:13.683Z,13.40
2023-04-21T09:37:43.750Z,13.60
2023-04-21T09:40:13.815Z,13.20
2023-04-21T09:42:43.939Z,13.30
2023-04-21T09:47:43.551Z,13.70
2023-04-21T09:50:13.432Z,14.00
2023-04-21T09:52:43.654Z,14.00
2023-04-21T09:55:13.794Z,14.40
2023-04-21T09:57:44.096Z,15.00
2023-04-21T10:00:13.382Z,14.90
2023-04-21T10:02:47.514Z,14.80
2023-04-21T10:05:14.634Z,15.20
2023-04-21T10:07:41.340Z,15.00
2023-04-21T10:10:14.188Z,14.70
2023-04-21T10:12:41.607Z,14.30
2023-04-21T10:15:41.438Z,14.60
2023-04-21T10:18:25.422Z,14.60
2023-04-21T10:20:56.511Z,14.80
2023-04-21T10:23:30.932Z,15.10
2023-04-21T10:26:23.481Z,14.80
2023-04-21T10:29:01.594Z,14.70
2023-04-21T10:31:43.982Z,15.00
2023-04-21T10:34:14.159Z,15.60
2023-04-21T10:37:07.206Z,16.30
2023-04-21T10:39:38.045Z,16.10
2023-04-21T10:42:17.008Z,15.80
2023-04-21T10:44:53.622Z,15.40
2023-04-21T10:47:46.450Z,15.40
2023-04-21T10:50:22.525Z,15.40
2023-04-21T10:53:11.809Z,15.50
2023-04-21T10:55:39.268Z,15.50
2023-04-21T10:58:11.990Z,15.40
2023-04-21T11:00:39.558Z,15.40
2023-04-21T11:03:08.160Z,15.50
2023-04-21T11:05:40.725Z,15.50
2023-04-21T11:08:13.260Z,15.30
2023-04-21T11:10:48.923Z,14.90
2023-04-21T11:13:16.264Z,15.00
2023-04-21T11:15:56.986Z,15.20
2023-04-21T11:18:44.684Z,15.30
2023-04-21T11:21:18.400Z,15.50
2023-04-21T11:23:49.904Z,15.60
2023-04-21T11:26:17.209Z,15.70
2023-04-21T11:28:47.389Z,15.90
2023-04-21T11:31:14.108Z,15.60
2023-04-21T11:33:41.714Z,15.40
2023-04-21T11:36:08.661Z,15.50
2023-04-21T11:38:43.086Z,15.70
2023-04-21T11:41:11.240Z,15.90
2023-04-21T11:43:39.531Z,15.90
2023-04-21T11:46:33.404Z,16.10
2023-04-21T11:49:01.899Z,16.50
2023-04-21T11:51:39.246Z,17.10
2023-04-21T11:54:08.434Z,17.30
2023-04-21T11:56:40.708Z,17.10
2023-04-21T11:59:11.815Z,17.00
2023-04-21T12:01:53.316Z,16.80
2023-04-21T12:04:22.727Z,16.40
2023-04-21T12:07:01.746Z,16.50
2023-04-21T12:09:29.872Z,16.40
2023-04-21T12:11:59.158Z,16.50
2023-04-21T12:14:29.128Z,17.00
2023-04-21T12:16:57.725Z,17.50
2023-04-21T12:19:43.590Z,17.70
2023-04-21T12:22:12.886Z,17.50
2023-04-21T12:24:40.461Z,17.30
2023-04-21T12:27:08.136Z,17.00
2023-04-21T12:29:35.653Z,16.80
2023-04-21T12:32:03.288Z,16.70
2023-04-21T12:34:30.293Z,16.60
2023-04-21T12:36:58.048Z,16.60
2023-04-21T12:39:24.904Z,16.70
2023-04-21T12:41:52.233Z,16.70
2023-04-21T12:44:19.229Z,16.80
2023-04-21T12:46:46.608Z,17.00
2023-04-21T12:49:14.445Z,16.90
2023-04-21T12:51:41.783Z,17.20
2023-04-21T12:54:08.653Z,17.20
2023-04-21T12:56:36.486Z,17.30
2023-04-21T12:59:03.242Z,17.10
2023-04-21T13:01:30.349Z,16.90
2023-04-21T13:03:57.957Z,16.90
2023-04-21T13:06:24.907Z,17.00
2023-04-21T13:08:51.837Z,17.20
2023-04-21T13:11:18.720Z,17.30
2023-04-21T13:13:46.134Z,17.50
2023-04-21T13:16:12.927Z,17.50
2023-04-21T13:18:39.817Z,17.50
2023-04-21T13:21:06.516Z,17.20
2023-04-21T13:23:34.861Z,17.00
2023-04-21T13:26:01.937Z,17.20
2023-04-21T13:28:29.192Z,17.30
2023-04-21T13:30:55.929Z,17.30
2023-04-21T13:33:23.419Z,17.30
2023-04-21T13:35:50.620Z,17.20
2023-04-21T13:38:17.341Z,17.20
2023-04-21T13:40:45.578Z,17.20
2023-04-21T13:43:12.832Z,17.60
2023-04-21T13:45:39.529Z,17.70
2023-04-21T13:48:06.756Z,18.10
2023-04-21T13:50:33.876Z,18.30
2023-04-21T13:53:00.479Z,18.30
2023-04-21T13:55:27.426Z,18.10
2023-04-21T13:57:54.963Z,18.10
2023-04-21T14:00:21.943Z,18.20
2023-04-21T14:02:49.496Z,18.00
2023-04-21T14:05:16.672Z,17.80
2023-04-21T14:07:44.557Z,17.70
2023-04-21T14:10:12.314Z,17.80
2023-04-21T14:12:39.701Z,17.90
2023-04-21T14:15:07.159Z,17.70
2023-04-21T14:17:34.583Z,17.50
2023-04-21T14:20:01.567Z,17.40
2023-04-21T14:22:28.932Z,17.40
2023-04-21T14:24:55.570Z,17.50
2023-04-21T14:27:22.934Z,17.50
2023-04-21T14:29:49.606Z,17.40
2023-04-21T14:32:17.118Z,17.30
2023-04-21T14:34:43.858Z,17.50
2023-04-21T14:37:11.168Z,17.90
2023-04-21T14:39:37.793Z,18.00
2023-04-21T14:42:05.135Z,18.10
2023-04-21T14:44:31.832Z,18.20
2023-04-21T14:47:08.940Z,18.20
2023-04-21T14:49:38.144Z,18.10
2023-04-21T14:52:05.583Z,18.00
2023-04-21T14:54:32.388Z,18.00
2023-04-21T14:57:17.670Z,17.90
2023-04-21T14:59:46.596Z,17.60
2023-04-21T15:02:14.539Z,17.30
2023-04-21T15:04:41.527Z,17.10
2023-04-21T15:07:08.914Z,17.10
2023-04-21T15:09:36.516Z,17.20
2023-04-21T15:12:04.324Z,17.40
2023-04-21T15:14:31.208Z,17.60
2023-04-21T15:16:58.551Z,17.80
2023-04-21T15:19:25.811Z,17.80
2023-04-21T15:21:53.347Z,17.80
2023-04-21T15:24:20.120Z,17.90
2023-04-21T15:26:47.372Z,17.90
2023-04-21T15:29:14.036Z,17.90
2023-04-21T15:31:41.549Z,17.80
2023-04-21T15:34:08.254Z,17.80
2023-04-21T15:36:35.887Z,17.80
2023-04-21T15:39:02.649Z,17.70
2023-04-21T15:41:31.744Z,17.80
2023-04-21T15:43:59.712Z,17.80
2023-04-21T15:46:27.353Z,17.90
2023-04-21T15:48:54.109Z,17.90
2023-04-21T15:51:21.344Z,17.80
2023-04-21T15:53:48.893Z,17.70
2023-04-21T15:56:16.908Z,17.60
2023-04-21T15:58:43.929Z,17.50
2023-04-21T16:01:11.572Z,17.50
2023-04-21T16:03:40.095Z,17.50
2023-04-21T16:06:08.048Z,17.40
2023-04-21T16:08:34.848Z,17.50
2023-04-21T16:11:02.244Z,17.40
2023-04-21T16:13:29.506Z,17.50
2023-04-21T16:15:56.868Z,17.50
2023-04-21T16:18:23.746Z,17.50
2023-04-21T16:20:51.341Z,17.50
2023-04-21T16:23:18.116Z,17.40
2023-04-21T16:25:45.563Z,17.30
2023-04-21T16:28:12.518Z,17.20
2023-04-21T16:30:43.813Z,17.10
2023-04-21T16:33:11.112Z,16.80
2023-04-21T16:35:39.348Z,16.20
2023-04-21T16:38:06.479Z,15.60
2023-04-21T16:40:33.887Z,15.10
2023-04-21T16:43:00.723Z,14.60
2023-04-21T16:45:29.788Z,14.10
2023-04-21T16:47:57.223Z,13.80
2023-04-21T16:50:24.399Z,13.40
2023-04-21T16:52:51.361Z,13.20
2023-04-21T16:55:19.135Z,13.00
2023-04-21T16:57:46.142Z,12.80
2023-04-21T17:00:14.084Z,12.70
2023-04-21T17:02:40.901Z,12.70
2023-04-21T17:05:08.766Z,12.70
2023-04-21T17:07:35.453Z,12.60
2023-04-21T17:10:02.797Z,12.70
2023-04-21T17:12:29.561Z,12.70
2023-04-21T17:14:56.492Z,12.70
2023-04-21T17:17:23.721Z,12.70
2023-04-21T17:19:52.864Z,12.80
2023-04-21T17:22:19.490Z,12.80
2023-04-21T17:24:53.269Z,12.80
2023-04-21T17:27:21.554Z,12.80
2023-04-21T17:29:48.674Z,12.80
2023-04-21T17:32:15.773Z,12.90
2023-04-21T17:34:42.865Z,12.90
2023-04-21T17:37:09.575Z,12.90
2023-04-21T17:39:36.667Z,12.90
2023-04-21T17:42:03.444Z,12.90
2023-04-21T17:44:31.267Z,12.90
2023-04-21T17:46:58.092Z,12.90
2023-04-21T17:49:26.282Z,12.80
2023-04-21T17:51:53.091Z,12.80
2023-04-21T17:54:20.481Z,12.70
2023-04-21T17:56:47.291Z,12.70
2023-04-21T17:59:14.588Z,12.70
2023-04-21T18:01:41.347Z,12.60
2023-04-21T18:04:08.953Z,12.50
2023-04-21T18:06:36.317Z,12.50
2023-04-21T18:09:05.220Z,12.50
2023-04-21T18:11:32.115Z,12.40
2023-04-21T18:13:59.699Z,12.40
2023-04-21T18:16:26.458Z,12.40
2023-04-21T18:18:53.974Z,12.30
2023-04-21T18:21:21.163Z,12.30
2023-04-21T18:23:49.044Z,12.30
2023-04-21T18:26:15.819Z,12.30
2023-04-21T18:28:42.787Z,12.20
2023-04-21T18:31:09.659Z,12.20
2023-04-21T18:33:37.100Z,12.20
2023-04-21T18:36:03.991Z,12.20
2023-04-21T18:38:31.375Z,12.10
2023-04-21T18:40:58.024Z,12.10
2023-04-21T18:43:25.608Z,12.00
2023-04-21T18:45:52.719Z,12.00
2023-04-21T18:48:19.725Z,12.00
2023-04-21T18:50:46.748Z,11.90
2023-04-21T18:53:15.076Z,11.90
2023-04-21T18:55:41.676Z,11.90
2023-04-21T18:58:08.918Z,11.80
2023-04-21T19:00:38.725Z,11.80
2023-04-21T19:03:09.046Z,11.80
2023-04-21T19:05:37.541Z,11.80
2023-04-21T19:08:04.572Z,11.80
2023-04-21T19:10:34.369Z,11.80
2023-04-21T19:13:01.875Z,11.70
2023-04-21T19:15:28.623Z,11.80
2023-04-21T19:17:55.864Z,11.80
2023-04-21T19:20:22.526Z,11.80
2023-04-21T19:22:49.296Z,11.90
2023-04-21T19:25:17.327Z,11.90
2023-04-21T19:27:44.398Z,11.90
2023-04-21T19:30:11.231Z,12.00
2023-04-21T19:32:38.184Z,12.10
2023-04-21T19:35:05.274Z,12.10
2023-04-21T19:37:34.410Z,12.10
2023-04-21T19:40:03.189Z,11.90
2023-04-21T19:42:30.819Z,11.70
2023-04-21T19:44:58.349Z,11.50
2023-04-21T19:47:24.948Z,11.30
2023-04-21T19:49:52.254Z,11.20
2023-04-21T19:52:19.277Z,11.10
2023-04-21T19:54:45.878Z,11.00
2023-04-21T19:57:12.916Z,11.00
2023-04-21T19:59:39.871Z,11.00
2023-04-21T20:02:07.377Z,10.90
2023-04-21T20:04:34.890Z,10.90
2023-04-21T20:07:01.961Z,10.80
2023-04-21T20:09:29.620Z,10.70
2023-04-21T20:11:56.515Z,10.70
2023-04-21T20:14:23.496Z,10.70
2023-04-21T20:16:50.217Z,10.60
2023-04-21T20:19:17.739Z,10.60
2023-04-21T20:21:44.656Z,10.60
2023-04-21T20:24:12.193Z,10.50
2023-04-21T20:26:38.824Z,10.50
2023-04-21T20:29:05.836Z,10.40
2023-04-21T20:31:33.106Z,10.40
2023-04-21T20:34:00.502Z,10.40
2023-04-21T20:36:27.492Z,10.30
2023-04-21T20:38:57.280Z,10.30
2023-04-21T20:41:24.039Z,10.30
2023-04-21T20:43:51.334Z,10.30
2023-04-21T20:46:18.428Z,10.30
2023-04-21T20:48:45.997Z,10.30
2023-04-21T20:51:13.455Z,10.20
2023-04-21T20:53:40.706Z,10.20
2023-04-21T20:56:07.707Z,10.20
2023-04-21T20:58:35.982Z,10.20
2023-04-21T21:01:02.734Z,10.10
2023-04-21T21:03:31.051Z,10.10
2023-04-21T21:05:57.849Z,10.10
2023-04-21T21:08:24.545Z,10.10
2023-04-21T21:10:51.240Z,10.10
2023-04-21T21:13:18.511Z,10.10
2023-04-21T21:15:45.914Z,10.00
2023-04-21T21:18:13.614Z,10.00
2023-04-21T21:20:40.298Z,9.90
2023-04-21T21:23:07.777Z,9.90
2023-04-21T21:25:34.629Z,9.90
2023-04-21T21:28:01.869Z,9.90
2023-04-21T21:30:28.575Z,9.90
2023-04-21T21:32:56.201Z,9.80
2023-04-21T21:35:22.974Z,9.80
2023-04-21T21:37:50.467Z,9.70
2023-04-21T21:40:17.130Z,9.60
2023-04-21T21:42:44.491Z,9.60
2023-04-21T21:45:11.522Z,9.60
2023-04-21T21:47:42.951Z,9.60
2023-04-21T21:50:12.433Z,9.60
2023-04-21T21:52:39.757Z,9.60
2023-04-21T21:55:06.952Z,9.60
2023-04-21T21:57:34.382Z,9.50
2023-04-21T22:00:01.812Z,9.50
2023-04-21T22:02:32.296Z,9.50
2023-04-21T22:04:59.441Z,9.50
2023-04-21T22:07:26.871Z,9.40
2023-04-21T22:09:53.614Z,9.30
2023-04-21T22:12:21.011Z,9.30
2023-04-21T22:14:47.724Z,9.20
2023-04-21T22:17:16.086Z,9.10
2023-04-21T22:19:42.820Z,9.10
2023-04-21T22:22:10.800Z,9.00
2023-04-21T22:24:37.938Z,9.00
2023-04-21T22:27:05.288Z,9.00
2023-04-21T22:29:31.948Z,8.90
2023-04-21T22:31:59.200Z,8.90
2023-04-21T22:34:25.896Z,8.80
2023-04-21T22:36:53.634Z,8.80
2023-04-21T22:39:20.822Z,8.70
2023-04-21T22:41:48.022Z,8.70
2023-04-21T22:44:14.661Z,8.60
2023-04-21T22:46:43.080Z,8.50
2023-04-21T22:49:09.825Z,8.50
2023-04-21T22:51:37.106Z,8.50
2023-04-21T22:54:03.929Z,8.50
2023-04-21T22:56:31.717Z,8.50
2023-04-21T22:58:58.539Z,8.50
2023-04-21T23:01:25.952Z,8.60
2023-04-21T23:03:52.703Z,8.50
2023-04-21T23:06:20.105Z,8.50
2023-04-21T23:08:46.754Z,8.50
2023-04-21T23:11:14.319Z,8.40
2023-04-21T23:13:41.168Z,8.30
2023-04-21T23:16:08.549Z,8.30
2023-04-21T23:18:35.801Z,8.20
2023-04-21T23:21:03.215Z,8.20
2023-04-21T23:23:29.908Z,8.20
2023-04-21T23:25:57.141Z,8.10
2023-04-21T23:28:24.218Z,8.10
2023-04-21T23:30:51.717Z,8.00
2023-04-21T23:33:18.500Z,8.00
2023-04-21T23:35:45.945Z,7.90
2023-04-21T23:38:12.714Z,7.80
2023-04-21T23:40:40.051Z,7.70
2023-04-21T23:43:07.333Z,7.70
2023-04-21T23:45:34.724Z,7.80
2023-04-21T23:48:01.482Z,7.80
2023-04-21T23:50:28.991Z,7.80
2023-04-21T23:52:55.881Z,7.70
2023-04-21T23:55:23.223Z,7.70
2023-04-21T23:57:49.858Z,7.80
